createdAt,value
2023-08-12T00:02:49.577Z,5.53
2023-08-12T00:05:16.209Z,5.77
2023-08-12T00:07:43.383Z,5.63
2023-08-12T00:10:10.856Z,5.50
2023-08-12T00:12:37.790Z,5.60
2023-08-12T00:15:05.625Z,5.83
2023-08-12T00:17:32.280Z,6.27
2023-08-12T00:19:58.881Z,6.50
2023-08-12T00:22:25.531Z,5.90
2023-08-12T00:24:52.645Z,5.60
2023-08-12T00:27:19.403Z,5.53
2023-08-12T00:29:46.047Z,5.60
2023-08-12T00:32:12.610Z,5.50
2023-08-12T00:34:39.230Z,5.60
2023-08-12T00:37:05.875Z,5.50
2023-08-12T00:39:32.461Z,6.30
2023-08-12T00:41:59.069Z,5.60
2023-08-12T00:44:25.672Z,5.87
2023-08-12T00:46:53.945Z,6.63
2023-08-12T00:49:20.671Z,5.37
2023-08-12T00:51:47.359Z,5.90
2023-08-12T00:54:17.672Z,5.73
2023-08-12T00:56:44.413Z,5.23
2023-08-12T00:59:11.445Z,5.60
2023-08-12T01:01:44.663Z,6.53
2023-08-12T01:04:11.720Z,5.33
2023-08-12T01:06:38.371Z,5.73
2023-08-12T01:09:06.371Z,5.40
2023-08-12T01:11:51.086Z,5.50
2023-08-12T01:14:27.025Z,5.93
2023-08-12T01:16:58.036Z,5.83
2023-08-12T01:19:34.030Z,5.70
2023-08-12T01:22:02.904Z,5.77
2023-08-12T01:24:36.479Z,5.27
2023-08-12T01:27:04.620Z,5.50
2023-08-12T01:29:31.741Z,5.57
2023-08-12T01:32:07.441Z,5.77
2023-08-12T01:34:43.705Z,5.80
2023-08-12T01:37:12.737Z,5.47
2023-08-12T01:39:40.435Z,5.40
2023-08-12T01:42:08.339Z,8.63
2023-08-12T01:44:35.028Z,5.63
2023-08-12T01:47:02.432Z,5.87
2023-08-12T01:49:29.020Z,5.80
2023-08-12T01:51:55.691Z,5.43
2023-08-12T01:54:23.999Z,6.70
2023-08-12T01:56:50.599Z,6.73
2023-08-12T01:59:17.353Z,5.90
2023-08-12T02:01:44.029Z,5.83
2023-08-12T02:04:10.788Z,6.33
2023-08-12T02:06:37.403Z,5.33
2023-08-12T02:09:04.050Z,5.83
2023-08-12T02:11:30.730Z,5.73
2023-08-12T02:13:57.382Z,6.20
2023-08-12T02:16:24.058Z,5.27
2023-08-12T02:18:50.624Z,5.83
2023-08-12T02:21:17.657Z,5.67
2023-08-12T02:23:45.378Z,6.93
2023-08-12T02:26:11.983Z,5.33
2023-08-12T02:28:38.571Z,5.63
2023-08-12T02:31:05.164Z,5.83
2023-08-12T02:33:31.767Z,5.67
2023-08-12T02:35:58.371Z,6.00
2023-08-12T02:38:25.405Z,6.33
2023-08-12T02:40:52.143Z,6.20
2023-08-12T02:43:18.769Z,5.87
2023-08-12T02:45:45.629Z,6.20
2023-08-12T02:48:12.604Z,6.57
2023-08-12T02:50:39.826Z,5.80
2023-08-12T02:53:07.173Z,5.63
2023-08-12T02:55:33.775Z,6.17
2023-08-12T02:58:00.710Z,6.40
2023-08-12T03:00:27.630Z,5.73
2023-08-12T03:02:54.694Z,5.60
2023-08-12T03:05:21.950Z,6.50
2023-08-12T03:07:48.749Z,6.07
2023-08-12T03:10:15.589Z,6.73
2023-08-12T03:12:42.515Z,6.20
2023-08-12T03:15:09.474Z,6.10
2023-08-12T03:17:36.269Z,6.47
2023-08-12T03:20:06.140Z,6.40
2023-08-12T03:22:32.870Z,6.70
2023-08-12T03:24:59.501Z,6.40
2023-08-12T03:27:26.131Z,5.50
2023-08-12T03:29:53.439Z,5.87
2023-08-12T03:32:20.130Z,6.90
2023-08-12T03:34:49.014Z,6.20
2023-08-12T03:37:16.148Z,6.03
2023-08-12T03:39:43.054Z,6.03
2023-08-12T03:42:09.821Z,6.65
2023-08-12T03:44:38.943Z,6.63
2023-08-12T03:47:06.244Z,6.17
2023-08-12T03:49:34.364Z,6.50
2023-08-12T03:52:02.025Z,7.30
2023-08-12T03:54:28.643Z,6.40
2023-08-12T03:56:55.349Z,6.90
2023-08-12T03:59:23.204Z,7.20
2023-08-12T04:01:49.788Z,9.43
2023-08-12T04:04:16.458Z,6.07
2023-08-12T04:06:43.321Z,6.20
2023-08-12T04:09:10.659Z,6.37
2023-08-12T04:11:37.441Z,6.60
2023-08-12T04:14:04.263Z,6.60
2023-08-12T04:16:30.902Z,6.50
2023-08-12T04:18:57.767Z,6.57
2023-08-12T04:21:24.443Z,6.57
2023-08-12T04:23:51.176Z,5.87
2023-08-12T04:26:17.999Z,7.00
2023-08-12T04:28:44.929Z,6.47
2023-08-12T04:31:11.756Z,6.53
2023-08-12T04:33:41.462Z,6.90
2023-08-12T04:36:08.488Z,6.63
2023-08-12T04:38:36.244Z,6.63
2023-08-12T04:41:06.486Z,5.97
2023-08-12T04:43:33.147Z,9.03
2023-08-12T04:46:00.620Z,6.90
2023-08-12T04:48:27.318Z,6.10
2023-08-12T04:50:55.647Z,7.57
2023-08-12T04:53:22.383Z,5.83
2023-08-12T04:55:51.186Z,5.97
2023-08-12T04:58:18.276Z,7.63
2023-08-12T05:00:45.013Z,5.97
2023-08-12T05:03:12.756Z,5.87
2023-08-12T05:05:39.575Z,5.83
2023-08-12T05:08:07.651Z,8.10
2023-08-12T05:10:35.688Z,7.43
2023-08-12T05:13:02.482Z,6.50
2023-08-12T05:15:29.141Z,6.20
2023-08-12T05:17:56.008Z,6.43
2023-08-12T05:20:23.497Z,5.80
2023-08-12T05:22:50.208Z,6.20
2023-08-12T05:25:16.865Z,6.93
2023-08-12T05:27:43.427Z,5.97
2023-08-12T05:30:10.243Z,6.30
2023-08-12T05:32:36.864Z,6.63
2023-08-12T05:35:03.600Z,5.87
2023-08-12T05:37:30.248Z,5.47
2023-08-12T05:39:56.849Z,6.30
2023-08-12T05:42:23.547Z,6.70
2023-08-12T05:44:50.119Z,6.10
2023-08-12T05:47:16.699Z,5.83
2023-08-12T05:49:43.651Z,5.90
2023-08-12T05:52:10.736Z,5.60
2023-08-12T05:54:37.942Z,5.83
2023-08-12T05:57:04.622Z,7.77
2023-08-12T05:59:31.301Z,6.80
2023-08-12T06:01:57.894Z,6.10
2023-08-12T06:04:24.517Z,5.43
2023-08-12T06:06:51.123Z,5.63
2023-08-12T06:09:17.803Z,6.33
2023-08-12T06:11:44.378Z,6.97
2023-08-12T06:14:10.983Z,6.63
2023-08-12T06:16:37.577Z,5.23
2023-08-12T06:19:04.225Z,5.90
2023-08-12T06:21:30.875Z,8.30
2023-08-12T06:23:57.540Z,5.67
2023-08-12T06:26:24.186Z,6.03
2023-08-12T06:28:50.834Z,6.30
2023-08-12T06:31:17.499Z,5.47
2023-08-12T06:33:44.129Z,6.80
2023-08-12T06:36:10.749Z,5.80
2023-08-12T06:38:37.363Z,6.03
2023-08-12T06:41:04.321Z,6.07
2023-08-12T06:43:30.937Z,5.33
2023-08-12T06:45:57.616Z,5.17
2023-08-12T06:48:24.288Z,5.13
2023-08-12T06:50:54.242Z,5.50
2023-08-12T06:53:20.861Z,5.40
2023-08-12T06:55:47.573Z,5.37
2023-08-12T06:58:15.113Z,4.77
2023-08-12T07:00:42.105Z,5.80
2023-08-12T07:03:08.777Z,5.10
2023-08-12T07:05:35.548Z,5.40
2023-08-12T07:08:02.169Z,4.50
2023-08-12T07:10:30.059Z,4.83
2023-08-12T07:12:56.762Z,4.73
2023-08-12T07:15:23.399Z,4.60
2023-08-12T07:17:49.980Z,4.60
2023-08-12T07:20:16.642Z,4.43
2023-08-12T07:22:43.222Z,5.07
2023-08-12T07:25:10.102Z,3.77
2023-08-12T07:27:36.792Z,5.70
2023-08-12T07:30:04.164Z,4.03
2023-08-12T07:32:30.788Z,3.53
2023-08-12T07:34:57.457Z,3.73
2023-08-12T07:37:24.060Z,3.87
2023-08-12T07:39:50.724Z,4.73
2023-08-12T07:42:17.307Z,3.73
2023-08-12T07:44:44.166Z,4.33
2023-08-12T07:47:10.779Z,4.17
2023-08-12T07:49:37.501Z,4.60
2023-08-12T07:52:04.222Z,3.70
2023-08-12T07:54:30.818Z,3.53
2023-08-12T07:56:57.404Z,3.87
2023-08-12T07:59:24.043Z,4.10
2023-08-12T08:01:50.673Z,4.47
2023-08-12T08:04:17.281Z,3.80
2023-08-12T08:06:43.872Z,3.77
2023-08-12T08:09:10.768Z,5.43
2023-08-12T08:11:37.677Z,4.20
2023-08-12T08:14:04.403Z,3.87
2023-08-12T08:16:31.162Z,3.87
2023-08-12T08:18:58.792Z,3.60
2023-08-12T08:21:25.710Z,4.17
2023-08-12T08:23:52.702Z,3.87
2023-08-12T08:26:19.405Z,3.60
2023-08-12T08:28:46.072Z,3.73
2023-08-12T08:31:12.712Z,4.27
2023-08-12T08:33:39.898Z,3.97
2023-08-12T08:36:06.877Z,4.73
2023-08-12T08:38:33.488Z,3.40
2023-08-12T08:41:00.651Z,4.43
2023-08-12T08:43:27.904Z,5.10
2023-08-12T08:45:54.953Z,3.07
2023-08-12T08:48:21.916Z,4.30
2023-08-12T08:50:49.583Z,3.50
2023-08-12T08:53:17.183Z,3.13
2023-08-12T08:55:44.154Z,4.37
2023-08-12T09:00:39.018Z,3.70
2023-08-12T09:03:06.346Z,3.50
2023-08-12T09:05:33.310Z,3.70
2023-08-12T09:08:00.809Z,3.27
2023-08-12T09:10:29.710Z,3.70
2023-08-12T09:12:56.851Z,3.77
2023-08-12T09:15:23.506Z,3.40
2023-08-12T09:17:50.120Z,4.47
2023-08-12T09:20:17.190Z,3.40
2023-08-12T09:22:44.452Z,3.40
2023-08-12T09:25:11.452Z,3.53
2023-08-12T09:27:41.041Z,3.70
2023-08-12T09:30:08.979Z,3.70
2023-08-12T09:32:35.936Z,3.50
2023-08-12T09:35:07.193Z,3.33
2023-08-12T09:37:34.333Z,5.37
2023-08-12T09:40:01.573Z,3.43
2023-08-12T09:42:29.181Z,3.60
2023-08-12T09:44:57.511Z,3.40
2023-08-12T09:47:26.145Z,3.10
2023-08-12T09:49:52.767Z,2.80
2023-08-12T09:52:19.507Z,4.15
2023-08-12T09:54:46.894Z,2.97
2023-08-12T09:57:14.785Z,2.83
2023-08-12T09:59:42.562Z,2.63
2023-08-12T10:02:14.361Z,3.28
2023-08-12T10:04:42.746Z,3.10
2023-08-12T10:07:10.723Z,2.53
2023-08-12T10:09:38.810Z,3.33
2023-08-12T10:12:06.209Z,2.72
2023-08-12T10:14:33.013Z,2.80
2023-08-12T10:17:05.726Z,2.78
2023-08-12T10:19:33.427Z,2.65
2023-08-12T10:22:00.500Z,2.65
2023-08-12T10:24:27.845Z,2.35
2023-08-12T10:26:54.565Z,3.15
2023-08-12T10:29:21.596Z,2.58
2023-08-12T10:31:48.696Z,2.70
2023-08-12T10:34:22.766Z,2.35
2023-08-12T10:37:02.251Z,3.15
2023-08-12T10:39:32.227Z,2.60
2023-08-12T10:41:59.350Z,2.45
2023-08-12T10:44:40.028Z,2.47
2023-08-12T10:47:13.320Z,2.88
2023-08-12T10:49:43.336Z,3.47
2023-08-12T10:52:26.831Z,2.30
2023-08-12T10:54:53.693Z,3.50
2023-08-12T10:57:35.680Z,2.47
2023-08-12T11:00:04.531Z,2.67
2023-08-12T11:02:34.856Z,2.65
2023-08-12T11:05:04.025Z,2.20
2023-08-12T11:07:39.721Z,4.43
2023-08-12T11:10:10.918Z,2.20
2023-08-12T11:12:37.651Z,2.10
2023-08-12T11:15:07.601Z,2.00
2023-08-12T11:17:35.506Z,2.35
2023-08-12T11:20:04.108Z,2.03
2023-08-12T11:22:31.406Z,1.98
2023-08-12T11:24:57.996Z,2.60
2023-08-12T11:27:24.740Z,2.10
2023-08-12T11:29:52.488Z,1.85
2023-08-12T11:32:19.685Z,3.17
2023-08-12T11:34:46.304Z,2.00
2023-08-12T11:37:12.918Z,2.17
2023-08-12T11:39:39.760Z,3.10
2023-08-12T11:42:06.526Z,2.15
2023-08-12T11:44:33.201Z,2.53
2023-08-12T11:46:59.782Z,1.85
2023-08-12T11:49:26.417Z,2.20
2023-08-12T11:51:53.089Z,2.58
2023-08-12T11:54:19.777Z,2.10
2023-08-12T11:56:46.503Z,2.30
2023-08-12T11:59:13.125Z,2.60
2023-08-12T12:01:39.739Z,2.25
2023-08-12T12:04:06.439Z,1.92
2023-08-12T12:06:39.081Z,2.65
2023-08-12T12:09:07.249Z,1.98
2023-08-12T12:11:33.965Z,2.42
2023-08-12T12:14:03.996Z,3.72
2023-08-12T12:16:41.783Z,2.33
2023-08-12T12:19:11.418Z,2.20
2023-08-12T12:21:41.936Z,2.40
2023-08-12T12:24:09.148Z,2.85
2023-08-12T12:26:36.004Z,2.45
2023-08-12T12:29:04.398Z,3.38
2023-08-12T12:31:32.530Z,2.50
2023-08-12T12:33:59.165Z,2.40
2023-08-12T12:36:25.855Z,2.88
2023-08-12T12:38:52.542Z,2.50
2023-08-12T12:41:19.108Z,2.95
2023-08-12T12:43:45.795Z,2.42
2023-08-12T12:46:12.677Z,4.75
2023-08-12T12:48:39.287Z,3.53
2023-08-12T12:51:05.883Z,2.10
2023-08-12T12:53:32.462Z,2.42
2023-08-12T12:56:04.864Z,2.30
2023-08-12T12:58:32.452Z,2.40
2023-08-12T13:00:59.040Z,2.92
2023-08-12T13:03:25.777Z,2.85
2023-08-12T13:05:52.532Z,2.35
2023-08-12T13:08:19.357Z,3.67
2023-08-12T13:10:45.929Z,3.00
2023-08-12T13:13:14.121Z,2.60
2023-08-12T13:15:40.773Z,2.30
2023-08-12T13:18:07.369Z,2.53
2023-08-12T13:20:33.956Z,2.72
2023-08-12T13:23:00.564Z,5.38
2023-08-12T13:25:29.044Z,2.80
2023-08-12T13:27:55.604Z,2.47
2023-08-12T13:30:22.203Z,4.65
2023-08-12T13:32:48.923Z,2.72
2023-08-12T13:35:15.571Z,4.03
2023-08-12T13:37:43.114Z,2.60
2023-08-12T13:40:12.933Z,3.15
2023-08-12T13:42:39.671Z,2.70
2023-08-12T13:45:06.473Z,2.50
2023-08-12T13:47:34.844Z,3.08
2023-08-12T13:50:01.631Z,2.47
2023-08-12T13:52:28.274Z,3.17
2023-08-12T13:54:54.982Z,2.72
2023-08-12T13:57:21.588Z,2.72
2023-08-12T13:59:48.804Z,2.78
2023-08-12T14:02:16.200Z,2.03
2023-08-12T14:04:42.847Z,2.65
2023-08-12T14:07:09.457Z,2.28
2023-08-12T14:09:36.101Z,4.55
2023-08-12T14:12:02.669Z,2.85
2023-08-12T14:14:31.020Z,3.33
2023-08-12T14:16:57.695Z,2.03
2023-08-12T14:19:24.317Z,3.28
2023-08-12T14:21:50.974Z,2.45
2023-08-12T14:24:17.558Z,2.67
2023-08-12T14:26:44.180Z,5.75
2023-08-12T14:29:10.778Z,2.30
2023-08-12T14:31:37.396Z,2.38
2023-08-12T14:34:04.496Z,2.10
2023-08-12T14:36:31.230Z,4.70
2023-08-12T14:38:57.813Z,2.63
2023-08-12T14:41:24.414Z,2.42
2023-08-12T14:43:51.026Z,2.67
2023-08-12T14:46:17.682Z,2.28
2023-08-12T14:48:44.334Z,2.53
2023-08-12T14:51:10.962Z,2.83
2023-08-12T14:53:37.640Z,3.08
2023-08-12T14:56:04.456Z,2.83
2023-08-12T14:58:31.120Z,2.42
2023-08-12T15:00:57.969Z,4.13
2023-08-12T15:03:24.713Z,2.50
2023-08-12T15:05:59.606Z,2.45
2023-08-12T15:08:26.239Z,3.25
2023-08-12T15:10:52.822Z,3.42
2023-08-12T15:13:19.473Z,2.75
2023-08-12T15:15:50.276Z,2.63
2023-08-12T15:18:16.874Z,4.22
2023-08-12T15:20:43.564Z,2.60
2023-08-12T15:23:10.471Z,2.58
2023-08-12T15:25:37.071Z,3.03
2023-08-12T15:28:03.719Z,2.65
2023-08-12T15:30:30.600Z,2.50
2023-08-12T15:32:57.593Z,3.17
2023-08-12T15:35:24.306Z,3.00
2023-08-12T15:37:50.885Z,2.70
2023-08-12T15:40:17.727Z,2.35
2023-08-12T15:42:47.328Z,3.42
2023-08-12T15:45:14.379Z,2.53
2023-08-12T15:47:41.019Z,3.05
2023-08-12T15:50:08.194Z,2.15
2023-08-12T15:52:36.001Z,2.85
2023-08-12T15:55:05.638Z,7.53
2023-08-12T15:57:33.567Z,2.73
2023-08-12T16:00:00.157Z,2.50
2023-08-12T16:02:26.891Z,2.30
2023-08-12T16:04:53.664Z,2.45
2023-08-12T16:07:20.314Z,2.50
2023-08-12T16:09:47.003Z,2.42
2023-08-12T16:12:13.986Z,2.08
2023-08-12T16:14:40.731Z,2.40
2023-08-12T16:17:09.682Z,2.60
2023-08-12T16:19:36.819Z,3.35
2023-08-12T16:22:03.822Z,2.72
2023-08-12T16:24:30.452Z,2.47
2023-08-12T16:26:57.536Z,2.35
2023-08-12T16:29:24.138Z,3.10
2023-08-12T16:31:52.226Z,2.42
2023-08-12T16:34:18.824Z,4.07
2023-08-12T16:36:45.376Z,6.88
2023-08-12T16:39:12.035Z,3.92
2023-08-12T16:41:38.606Z,2.80
2023-08-12T16:44:05.292Z,2.50
2023-08-12T16:46:32.355Z,2.73
2023-08-12T16:48:59.006Z,2.47
2023-08-12T16:51:27.029Z,2.50
2023-08-12T16:53:53.569Z,2.57
2023-08-12T16:56:20.169Z,2.63
2023-08-12T16:58:46.801Z,3.40
2023-08-12T17:01:13.398Z,3.63
2023-08-12T17:03:40.066Z,2.97
2023-08-12T17:06:06.702Z,2.90
2023-08-12T17:08:33.290Z,3.40
2023-08-12T17:10:59.858Z,5.17
2023-08-12T17:13:26.469Z,3.00
2023-08-12T17:15:53.057Z,3.83
2023-08-12T17:18:19.602Z,4.53
2023-08-12T17:20:46.166Z,3.20
2023-08-12T17:23:12.762Z,3.50
2023-08-12T17:25:39.491Z,5.07
2023-08-12T17:28:06.407Z,3.37
2023-08-12T17:30:35.186Z,3.00
2023-08-12T17:33:02.455Z,6.97
2023-08-12T17:35:32.050Z,3.03
2023-08-12T17:38:00.430Z,10.97
2023-08-12T17:40:27.092Z,9.77
2023-08-12T17:42:53.650Z,6.73
2023-08-12T17:45:20.288Z,6.03
2023-08-12T17:47:57.346Z,4.00
2023-08-12T17:50:24.350Z,3.97
2023-08-12T17:52:50.948Z,4.33
2023-08-12T17:55:17.620Z,3.23
2023-08-12T17:57:44.437Z,4.47
2023-08-12T18:00:11.519Z,4.47
2023-08-12T18:02:38.193Z,9.03
2023-08-12T18:05:05.174Z,4.83
2023-08-12T18:07:31.898Z,5.50
2023-08-12T18:09:59.103Z,3.43
2023-08-12T18:12:25.908Z,4.97
2023-08-12T18:14:52.537Z,4.20
2023-08-12T18:17:20.896Z,3.90
2023-08-12T18:19:47.749Z,12.30
2023-08-12T18:22:14.807Z,19.07
2023-08-12T18:24:41.918Z,23.37
2023-08-12T18:27:08.671Z,22.87
2023-08-12T18:29:35.313Z,28.37
2023-08-12T18:32:02.260Z,18.83
2023-08-12T18:34:29.060Z,21.00
2023-08-12T18:36:55.898Z,23.57
2023-08-12T18:39:25.152Z,12.90
2023-08-12T18:41:51.909Z,10.43
2023-08-12T18:44:18.561Z,10.67
2023-08-12T18:46:45.246Z,5.17
2023-08-12T18:49:11.889Z,10.00
2023-08-12T18:51:38.536Z,7.70
2023-08-12T18:54:05.704Z,7.23
2023-08-12T18:56:32.468Z,4.20
2023-08-12T18:58:59.104Z,5.17
2023-08-12T19:01:25.781Z,5.20
2023-08-12T19:03:52.448Z,4.17
2023-08-12T19:06:18.995Z,4.30
2023-08-12T19:08:45.639Z,5.50
2023-08-12T19:11:12.317Z,5.73
2023-08-12T19:13:39.018Z,3.67
2023-08-12T19:16:05.658Z,4.53
2023-08-12T19:18:32.371Z,4.53
2023-08-12T19:20:58.940Z,3.77
2023-08-12T19:23:25.606Z,3.83
2023-08-12T19:25:53.915Z,4.50
2023-08-12T19:28:20.496Z,4.53
2023-08-12T19:30:50.628Z,3.70
2023-08-12T19:33:18.963Z,5.53
2023-08-12T19:35:45.889Z,4.50
2023-08-12T19:38:13.096Z,3.93
2023-08-12T19:40:39.955Z,4.03
2023-08-12T19:43:06.565Z,4.00
2023-08-12T19:45:33.366Z,3.77
2023-08-12T19:48:00.018Z,5.50
2023-08-12T19:50:26.716Z,3.40
2023-08-12T19:52:53.404Z,3.50
2023-08-12T19:55:20.045Z,3.80
2023-08-12T19:57:46.645Z,4.07
2023-08-12T20:00:15.257Z,3.80
2023-08-12T20:02:43.401Z,3.30
2023-08-12T20:05:17.718Z,3.60
2023-08-12T20:07:46.686Z,3.30
2023-08-12T20:10:17.380Z,3.37
2023-08-12T20:12:44.296Z,3.30
2023-08-12T20:15:11.831Z,4.10
2023-08-12T20:17:39.732Z,3.80
2023-08-12T20:20:10.746Z,4.03
2023-08-12T20:22:41.910Z,4.13
2023-08-12T20:25:14.716Z,4.57
2023-08-12T20:27:41.394Z,4.10
2023-08-12T20:30:09.059Z,4.00
2023-08-12T20:32:37.619Z,4.53
2023-08-12T20:35:04.931Z,4.40
2023-08-12T20:37:31.602Z,5.13
2023-08-12T20:39:58.297Z,4.53
2023-08-12T20:42:24.935Z,4.20
2023-08-12T20:44:51.590Z,3.80
2023-08-12T20:47:19.101Z,4.20
2023-08-12T20:49:45.776Z,4.30
2023-08-12T20:52:13.829Z,4.00
2023-08-12T20:54:40.685Z,4.03
2023-08-12T20:57:07.306Z,4.30
2023-08-12T20:59:33.962Z,5.00
2023-08-12T21:02:00.728Z,4.50
2023-08-12T21:04:27.436Z,4.43
2023-08-12T21:06:59.336Z,3.83
2023-08-12T21:09:26.071Z,4.40
2023-08-12T21:11:52.709Z,5.53
2023-08-12T21:14:19.616Z,4.87
2023-08-12T21:16:46.590Z,5.03
2023-08-12T21:19:17.563Z,5.13
2023-08-12T21:21:44.481Z,5.70
2023-08-12T21:24:11.242Z,5.83
2023-08-12T21:26:37.859Z,6.33
2023-08-12T21:29:04.757Z,6.20
2023-08-12T21:31:31.430Z,5.00
2023-08-12T21:33:58.060Z,5.67
2023-08-12T21:36:24.655Z,5.43
2023-08-12T21:38:54.140Z,4.90
2023-08-12T21:41:20.768Z,4.80
2023-08-12T21:43:47.422Z,5.20
2023-08-12T21:46:14.154Z,4.87
2023-08-12T21:48:40.843Z,5.80
2023-08-12T21:51:09.325Z,4.37
2023-08-12T21:53:36.081Z,5.07
2023-08-12T21:56:02.880Z,5.63
2023-08-12T21:58:29.496Z,4.93
2023-08-12T22:00:56.744Z,4.17
2023-08-12T22:03:23.484Z,4.70
2023-08-12T22:05:50.110Z,4.67
2023-08-12T22:08:16.752Z,4.13
2023-08-12T22:10:43.416Z,3.90
2023-08-12T22:13:10.038Z,4.27
2023-08-12T22:15:36.691Z,3.70
2023-08-12T22:18:03.507Z,3.87
2023-08-12T22:20:30.239Z,3.67
2023-08-12T22:22:56.815Z,4.27
2023-08-12T22:25:23.416Z,3.60
2023-08-12T22:27:50.314Z,3.43
2023-08-12T22:30:16.922Z,3.67
2023-08-12T22:32:43.874Z,4.10
2023-08-12T22:35:10.576Z,3.60
2023-08-12T22:37:37.206Z,3.60
2023-08-12T22:40:04.315Z,4.67
2023-08-12T22:42:30.865Z,3.50
2023-08-12T22:44:57.510Z,3.33
2023-08-12T22:47:24.123Z,3.10
2023-08-12T22:49:50.753Z,4.10
2023-08-12T22:52:17.332Z,3.97
2023-08-12T22:54:43.983Z,3.37
2023-08-12T22:57:10.601Z,3.23
2023-08-12T22:59:37.250Z,3.97
2023-08-12T23:02:03.951Z,3.10
2023-08-12T23:04:30.760Z,3.53
2023-08-12T23:06:57.595Z,3.13
2023-08-12T23:09:24.210Z,3.83
2023-08-12T23:11:50.913Z,4.20
2023-08-12T23:14:17.510Z,3.10
2023-08-12T23:16:44.242Z,5.40
2023-08-12T23:19:12.430Z,3.00
2023-08-12T23:21:39.270Z,3.40
2023-08-12T23:24:06.114Z,3.50
2023-08-12T23:26:32.716Z,3.93
2023-08-12T23:28:59.384Z,3.30
2023-08-12T23:31:26.095Z,3.60
2023-08-12T23:33:52.734Z,3.40
2023-08-12T23:36:19.509Z,3.50
2023-08-12T23:38:46.261Z,3.20
2023-08-12T23:41:13.344Z,3.50
2023-08-12T23:43:39.985Z,3.10
2023-08-12T23:46:06.751Z,3.57
2023-08-12T23:48:33.427Z,3.10
2023-08-12T23:51:00.068Z,3.23
2023-08-12T23:53:26.836Z,3.37
2023-08-12T23:55:53.490Z,6.07
2023-08-12T23:58:20.118Z,3.27
